createdAt,value
2017-05-27T00:00:45.727Z,0
2017-05-27T00:01:45.784Z,0
2017-05-27T00:02:45.834Z,0
2017-05-27T00:03:45.584Z,0
2017-05-27T00:04:45.946Z,0
2017-05-27T00:05:45.996Z,0
2017-05-27T00:06:46.057Z,0
2017-05-27T00:07:46.107Z,0
2017-05-27T00:08:45.862Z,0
2017-05-27T00:09:46.224Z,0
2017-05-27T00:10:46.271Z,0
2017-05-27T00:11:46.323Z,0
2017-05-27T00:12:46.383Z,0
2017-05-27T00:13:46.438Z,0
2017-05-27T00:14:46.496Z,0
2017-05-27T00:15:46.551Z,0
2017-05-27T00:16:46.603Z,0
2017-05-27T00:17:46.655Z,0
2017-05-27T00:18:46.711Z,0
2017-05-27T00:19:46.765Z,0
2017-05-27T00:20:46.817Z,0
2017-05-27T00:21:46.870Z,0
2017-05-27T00:22:46.927Z,0
2017-05-27T00:23:46.983Z,0
2017-05-27T00:24:46.737Z,0
2017-05-27T00:25:47.091Z,0
2017-05-27T00:26:47.146Z,0
2017-05-27T00:27:47.206Z,0
2017-05-27T00:28:47.256Z,0
2017-05-27T00:29:47.312Z,0
2017-05-27T00:30:47.363Z,0
2017-05-27T00:31:47.115Z,0
2017-05-27T00:32:47.480Z,0
2017-05-27T00:33:47.532Z,0
2017-05-27T00:34:47.277Z,0
2017-05-27T00:35:47.636Z,0
2017-05-27T00:36:47.690Z,0
2017-05-27T00:37:47.747Z,0
2017-05-27T00:38:47.805Z,0
2017-05-27T00:39:47.856Z,0
2017-05-27T00:40:47.609Z,0
2017-05-27T00:41:47.967Z,0
2017-05-27T00:42:48.019Z,0
2017-05-27T00:43:48.076Z,0
2017-05-27T00:44:48.138Z,0
2017-05-27T00:45:48.180Z,0
2017-05-27T00:46:48.239Z,0
2017-05-27T00:47:48.294Z,0
2017-05-27T00:48:48.347Z,0
2017-05-27T00:49:48.404Z,0
2017-05-27T00:50:48.456Z,0
2017-05-27T00:51:48.510Z,0
2017-05-27T00:52:48.570Z,0
2017-05-27T00:53:48.627Z,0
2017-05-27T00:54:48.677Z,0
2017-05-27T00:55:48.732Z,0
2017-05-27T00:56:48.785Z,0
2017-05-27T00:57:48.843Z,0
2017-05-27T00:58:48.904Z,0
2017-05-27T00:59:48.954Z,0
2017-05-27T01:00:49.010Z,0
2017-05-27T01:01:49.061Z,0
2017-05-27T01:02:49.116Z,0
2017-05-27T01:03:48.868Z,0
2017-05-27T01:04:48.919Z,0
2017-05-27T01:05:49.280Z,0
2017-05-27T01:06:49.034Z,0
2017-05-27T01:07:49.089Z,0
2017-05-27T01:08:49.445Z,0
2017-05-27T01:09:49.500Z,0
2017-05-27T01:10:49.556Z,0
2017-05-27T01:11:49.611Z,0
2017-05-27T01:12:49.660Z,0
2017-05-27T01:13:49.727Z,0
2017-05-27T01:14:49.772Z,0
2017-05-27T01:15:49.828Z,0
2017-05-27T01:16:49.880Z,0
2017-05-27T01:17:49.934Z,0
2017-05-27T01:18:49.990Z,0
2017-05-27T01:19:50.045Z,0
2017-05-27T01:20:50.100Z,0
2017-05-27T01:21:50.155Z,0
2017-05-27T01:22:50.211Z,0
2017-05-27T01:23:50.266Z,0
2017-05-27T01:24:50.322Z,0
2017-05-27T01:25:50.074Z,0
2017-05-27T01:26:50.427Z,0
2017-05-27T01:27:50.483Z,0
2017-05-27T01:28:50.545Z,0
2017-05-27T01:29:50.593Z,0
2017-05-27T01:30:50.647Z,0
2017-05-27T01:31:50.705Z,0
2017-05-27T01:32:50.760Z,0
2017-05-27T01:33:50.210Z,0
2017-05-27T01:34:50.865Z,0
2017-05-27T01:35:50.924Z,0
2017-05-27T01:36:50.972Z,0
2017-05-27T01:37:51.026Z,0
2017-05-27T01:38:51.084Z,0
2017-05-27T01:39:51.138Z,0
2017-05-27T01:40:51.195Z,0
2017-05-27T01:41:51.246Z,0
2017-05-27T01:42:51.307Z,0
2017-05-27T01:43:51.356Z,0
2017-05-27T01:44:51.420Z,0
2017-05-27T01:45:51.465Z,0
2017-05-27T01:46:51.522Z,0
2017-05-27T01:47:51.273Z,0
2017-05-27T01:48:51.635Z,0
2017-05-27T01:49:51.682Z,0
2017-05-27T01:50:51.741Z,0
2017-05-27T01:51:51.790Z,0
2017-05-27T01:52:51.848Z,0
2017-05-27T01:53:51.906Z,0
2017-05-27T01:54:51.957Z,0
2017-05-27T01:55:51.711Z,0
2017-05-27T01:56:52.066Z,0
2017-05-27T01:57:52.127Z,0
2017-05-27T01:58:52.183Z,0
2017-05-27T01:59:52.232Z,0
2017-05-27T02:00:51.982Z,0
2017-05-27T02:01:52.341Z,0
2017-05-27T02:02:52.400Z,0
2017-05-27T02:03:52.449Z,0
2017-05-27T02:04:52.503Z,0
2017-05-27T02:05:52.558Z,0
2017-05-27T02:06:52.617Z,0
2017-05-27T02:07:52.726Z,0
2017-05-27T02:08:52.725Z,0
2017-05-27T02:09:52.779Z,0
2017-05-27T02:10:52.834Z,0
2017-05-27T02:11:52.889Z,0
2017-05-27T02:12:52.942Z,0
2017-05-27T02:13:52.997Z,0
2017-05-27T02:14:52.749Z,0
2017-05-27T02:15:53.110Z,0
2017-05-27T02:16:53.162Z,0
2017-05-27T02:17:53.229Z,0
2017-05-27T02:18:52.967Z,0
2017-05-27T02:19:53.023Z,0
2017-05-27T02:20:53.379Z,0
2017-05-27T02:21:53.133Z,0
2017-05-27T02:22:53.491Z,0
2017-05-27T02:23:53.549Z,0
2017-05-27T02:24:53.601Z,0
2017-05-27T02:25:53.657Z,0
2017-05-27T02:26:53.705Z,0
2017-05-27T02:27:53.767Z,0
2017-05-27T02:28:53.515Z,0
2017-05-27T02:29:53.873Z,0
2017-05-27T02:30:53.929Z,0
2017-05-27T02:31:53.985Z,0
2017-05-27T02:32:54.093Z,0
2017-05-27T02:33:54.092Z,0
2017-05-27T02:34:54.146Z,0
2017-05-27T02:35:54.208Z,0
2017-05-27T02:36:54.268Z,0
2017-05-27T02:37:54.019Z,0
2017-05-27T02:38:54.063Z,0
2017-05-27T02:39:54.622Z,0
2017-05-27T02:40:54.476Z,0
2017-05-27T02:41:54.527Z,0
2017-05-27T02:42:54.584Z,0
2017-05-27T02:43:54.640Z,0
2017-05-27T02:44:54.691Z,0
2017-05-27T02:46:54.796Z,0
2017-05-27T02:47:54.857Z,0
2017-05-27T02:48:54.911Z,0
2017-05-27T02:49:54.665Z,0
2017-05-27T02:50:55.018Z,0
2017-05-27T02:51:55.075Z,0
2017-05-27T02:52:55.134Z,0
2017-05-27T02:53:55.187Z,0
2017-05-27T02:54:55.238Z,0
2017-05-27T02:55:55.294Z,0
2017-05-27T02:56:55.352Z,0
2017-05-27T02:57:55.409Z,0
2017-05-27T02:58:55.530Z,0
2017-05-27T02:59:55.514Z,0
2017-05-27T03:00:55.570Z,4
2017-05-27T03:01:55.622Z,4
2017-05-27T03:02:55.679Z,4
2017-05-27T03:03:55.730Z,0
2017-05-27T03:04:55.484Z,4
2017-05-27T03:05:55.537Z,4
2017-05-27T03:06:55.591Z,4
2017-05-27T03:07:55.959Z,4
2017-05-27T03:08:56.004Z,8
2017-05-27T03:09:56.063Z,4
2017-05-27T03:10:56.315Z,8
2017-05-27T03:11:56.365Z,8
2017-05-27T03:12:56.220Z,12
2017-05-27T03:13:55.972Z,12
2017-05-27T03:14:56.340Z,16
2017-05-27T03:15:56.082Z,16
2017-05-27T03:16:56.642Z,20
2017-05-27T03:17:56.259Z,20
2017-05-27T03:18:56.548Z,24
2017-05-27T03:19:56.300Z,28
2017-05-27T03:20:56.662Z,28
2017-05-27T03:21:56.922Z,32
2017-05-27T03:22:56.767Z,36
2017-05-27T03:23:56.817Z,40
2017-05-27T03:24:56.575Z,44
2017-05-27T03:25:56.928Z,48
2017-05-27T03:26:56.980Z,52
2017-05-27T03:27:57.037Z,60
2017-05-27T03:28:57.090Z,60
2017-05-27T03:29:57.154Z,68
2017-05-27T03:30:57.200Z,72
2017-05-27T03:31:56.952Z,80
2017-05-27T03:32:57.009Z,88
2017-05-27T03:33:57.365Z,92
2017-05-27T03:34:57.419Z,96
2017-05-27T03:35:57.473Z,104
2017-05-27T03:36:57.531Z,108
2017-05-27T03:37:57.582Z,120
2017-05-27T03:38:57.689Z,124
2017-05-27T03:39:57.688Z,132
2017-05-27T03:40:57.741Z,136
2017-05-27T03:41:57.796Z,144
2017-05-27T03:42:57.849Z,152
2017-05-27T03:43:57.908Z,156
2017-05-27T03:44:57.971Z,164
2017-05-27T03:45:58.009Z,172
2017-05-27T03:46:58.066Z,180
2017-05-27T03:47:57.891Z,188
2017-05-27T03:48:57.876Z,192
2017-05-27T03:49:58.234Z,200
2017-05-27T03:50:58.286Z,208
2017-05-27T03:51:58.041Z,212
2017-05-27T03:52:58.607Z,220
2017-05-27T03:54:13.079Z,228
2017-05-27T03:54:58.505Z,236
2017-05-27T03:55:58.556Z,240
2017-05-27T03:56:58.608Z,248
2017-05-27T03:57:58.666Z,252
2017-05-27T03:58:58.932Z,260
2017-05-27T03:59:58.778Z,268
2017-05-27T04:00:58.829Z,276
2017-05-27T04:01:58.884Z,280
2017-05-27T04:02:58.940Z,284
2017-05-27T04:03:58.994Z,292
2017-05-27T04:04:59.045Z,300
2017-05-27T04:05:59.102Z,304
2017-05-27T04:06:58.853Z,312
2017-05-27T04:07:59.209Z,316
2017-05-27T04:08:59.259Z,324
2017-05-27T04:09:59.321Z,328
2017-05-27T04:10:59.375Z,336
2017-05-27T04:11:59.432Z,340
2017-05-27T04:12:59.479Z,348
2017-05-27T04:13:59.536Z,348
2017-05-27T04:14:59.591Z,360
2017-05-27T04:15:59.342Z,364
2017-05-27T04:16:59.400Z,368
2017-05-27T04:17:59.764Z,372
2017-05-27T04:18:59.804Z,380
2017-05-27T04:19:59.863Z,384
2017-05-27T04:20:59.315Z,388
2017-05-27T04:21:59.675Z,392
2017-05-27T04:23:00.030Z,396
2017-05-27T04:24:00.083Z,404
2017-05-27T04:25:00.137Z,408
2017-05-27T04:26:00.187Z,412
2017-05-27T04:27:00.140Z,416
2017-05-27T04:28:00.000Z,420
2017-05-27T04:28:59.750Z,424
2017-05-27T04:30:00.426Z,432
2017-05-27T04:31:00.370Z,432
2017-05-27T04:32:00.212Z,440
2017-05-27T04:33:00.270Z,444
2017-05-27T04:34:00.633Z,448
2017-05-27T04:35:00.381Z,460
2017-05-27T04:36:00.737Z,492
2017-05-27T04:37:00.793Z,520
2017-05-27T04:38:00.542Z,536
2017-05-27T04:39:00.900Z,540
2017-05-27T04:40:00.653Z,544
2017-05-27T04:41:01.007Z,548
2017-05-27T04:42:01.061Z,556
2017-05-27T04:43:01.122Z,560
2017-05-27T04:44:00.873Z,560
2017-05-27T04:45:01.235Z,568
2017-05-27T04:46:01.280Z,576
2017-05-27T04:47:01.334Z,580
2017-05-27T04:48:01.390Z,584
2017-05-27T04:49:01.448Z,588
2017-05-27T04:50:01.196Z,596
2017-05-27T04:51:01.557Z,604
2017-05-27T04:52:01.309Z,608
2017-05-27T04:53:01.664Z,612
2017-05-27T04:54:01.416Z,616
2017-05-27T04:55:01.467Z,624
2017-05-27T04:56:01.826Z,632
2017-05-27T04:57:01.579Z,636
2017-05-27T04:58:01.952Z,640
2017-05-27T04:59:01.991Z,644
2017-05-27T05:00:02.053Z,652
2017-05-27T05:01:02.099Z,652
2017-05-27T05:02:02.158Z,656
2017-05-27T05:03:01.908Z,656
2017-05-27T05:04:02.262Z,660
2017-05-27T05:05:02.019Z,664
2017-05-27T05:06:02.068Z,668
2017-05-27T05:07:02.428Z,668
2017-05-27T05:08:15.865Z,672
2017-05-27T05:09:02.535Z,672
2017-05-27T05:10:02.596Z,676
2017-05-27T05:11:02.646Z,684
2017-05-27T05:12:02.695Z,688
2017-05-27T05:13:02.762Z,692
2017-05-27T05:14:03.017Z,692
2017-05-27T05:15:02.560Z,700
2017-05-27T05:16:02.313Z,704
2017-05-27T05:17:02.974Z,700
2017-05-27T05:18:02.735Z,704
2017-05-27T05:19:03.085Z,708
2017-05-27T05:20:03.137Z,716
2017-05-27T05:21:03.189Z,728
2017-05-27T05:22:03.243Z,732
2017-05-27T05:23:03.296Z,736
2017-05-27T05:24:03.354Z,744
2017-05-27T05:25:03.406Z,744
2017-05-27T05:26:03.157Z,752
2017-05-27T05:27:03.212Z,756
2017-05-27T05:28:03.270Z,760
2017-05-27T05:29:03.624Z,764
2017-05-27T05:30:03.683Z,772
2017-05-27T05:31:03.734Z,780
2017-05-27T05:32:03.787Z,784
2017-05-27T05:33:03.539Z,784
2017-05-27T05:34:03.896Z,792
2017-05-27T05:35:03.948Z,796
2017-05-27T05:36:04.006Z,800
2017-05-27T05:37:04.058Z,804
2017-05-27T05:38:04.114Z,808
2017-05-27T05:39:04.172Z,816
2017-05-27T05:40:04.223Z,816
2017-05-27T05:41:03.975Z,820
2017-05-27T05:42:04.325Z,824
2017-05-27T05:43:04.385Z,828
2017-05-27T05:44:04.432Z,832
2017-05-27T05:45:04.490Z,840
2017-05-27T05:46:04.542Z,840
2017-05-27T05:47:04.599Z,844
2017-05-27T05:48:04.052Z,848
2017-05-27T05:49:04.725Z,848
2017-05-27T05:50:04.460Z,852
2017-05-27T05:51:04.817Z,856
2017-05-27T05:52:05.091Z,860
2017-05-27T05:53:04.929Z,860
2017-05-27T05:54:04.678Z,864
2017-05-27T05:55:05.036Z,868
2017-05-27T05:56:04.786Z,868
2017-05-27T05:57:04.841Z,872
2017-05-27T05:58:05.201Z,876
2017-05-27T05:59:05.250Z,876
2017-05-27T06:00:05.309Z,884
2017-05-27T06:01:05.364Z,884
2017-05-27T06:02:05.419Z,884
2017-05-27T06:03:05.168Z,888
2017-05-27T06:04:05.525Z,892
2017-05-27T06:05:05.277Z,892
2017-05-27T06:06:05.633Z,900
2017-05-27T06:07:05.686Z,900
2017-05-27T06:08:05.442Z,904
2017-05-27T06:09:05.799Z,908
2017-05-27T06:10:05.852Z,912
2017-05-27T06:11:05.957Z,912
2017-05-27T06:12:05.962Z,916
2017-05-27T06:13:06.016Z,920
2017-05-27T06:14:05.766Z,924
2017-05-27T06:15:05.823Z,924
2017-05-27T06:16:06.385Z,928
2017-05-27T06:17:05.931Z,928
2017-05-27T06:18:06.292Z,936
2017-05-27T06:19:06.040Z,936
2017-05-27T06:20:06.397Z,940
2017-05-27T06:21:06.649Z,944
2017-05-27T06:22:06.201Z,944
2017-05-27T06:23:06.558Z,948
2017-05-27T06:24:06.321Z,956
2017-05-27T06:25:06.671Z,956
2017-05-27T06:26:06.421Z,960
2017-05-27T06:27:06.480Z,964
2017-05-27T06:28:06.838Z,968
2017-05-27T06:29:06.892Z,968
2017-05-27T06:30:06.942Z,980
2017-05-27T06:31:06.697Z,980
2017-05-27T06:32:06.748Z,984
2017-05-27T06:33:07.113Z,988
2017-05-27T06:34:06.857Z,992
2017-05-27T06:35:07.212Z,996
2017-05-27T06:36:06.971Z,1000
2017-05-27T06:37:07.327Z,1004
2017-05-27T06:38:07.390Z,1008
2017-05-27T06:39:07.430Z,1012
2017-05-27T06:40:07.187Z,1016
2017-05-27T06:41:07.542Z,1024
2017-05-27T06:42:07.593Z,1024
2017-05-27T06:43:07.046Z,1028
2017-05-27T06:44:07.402Z,1032
2017-05-27T06:45:07.758Z,1040
2017-05-27T06:46:07.513Z,1044
2017-05-27T06:47:07.875Z,1044
2017-05-27T06:48:07.924Z,1048
2017-05-27T06:49:07.979Z,1056
2017-05-27T06:50:07.730Z,1060
2017-05-27T06:51:07.784Z,1060
2017-05-27T06:52:07.836Z,1064
2017-05-27T06:53:08.197Z,1072
2017-05-27T06:54:08.255Z,1076
2017-05-27T06:55:08.000Z,1080
2017-05-27T06:56:08.365Z,1084
2017-05-27T06:57:08.413Z,1088
2017-05-27T06:58:07.863Z,1096
2017-05-27T06:59:08.223Z,1096
2017-05-27T07:00:08.272Z,1108
2017-05-27T07:01:08.331Z,1108
2017-05-27T07:02:08.385Z,1112
2017-05-27T07:03:08.755Z,1116
2017-05-27T07:04:08.494Z,1120
2017-05-27T07:05:08.555Z,1128
2017-05-27T07:06:08.297Z,1128
2017-05-27T07:07:08.358Z,1132
2017-05-27T07:08:09.016Z,1140
2017-05-27T07:09:08.770Z,1144
2017-05-27T07:10:08.822Z,1144
2017-05-27T07:11:09.181Z,1152
2017-05-27T07:12:08.939Z,1156
2017-05-27T07:13:09.292Z,1160
2017-05-27T07:14:09.043Z,1164
2017-05-27T07:15:09.399Z,1168
2017-05-27T07:16:09.454Z,1176
2017-05-27T07:17:09.510Z,1176
2017-05-27T07:18:09.570Z,1180
2017-05-27T07:19:09.620Z,1184
2017-05-27T07:20:09.672Z,1188
2017-05-27T07:21:09.731Z,1192
2017-05-27T07:22:09.786Z,1192
2017-05-27T07:23:09.844Z,1196
2017-05-27T07:24:09.592Z,1200
2017-05-27T07:25:09.954Z,1204
2017-05-27T07:26:09.707Z,1208
2017-05-27T07:27:10.064Z,1212
2017-05-27T07:28:09.815Z,1216
2017-05-27T07:29:09.571Z,1220
2017-05-27T07:30:09.922Z,1228
2017-05-27T07:31:10.288Z,1228
2017-05-27T07:32:10.037Z,1240
2017-05-27T07:33:10.090Z,1252
2017-05-27T07:34:10.458Z,1272
2017-05-27T07:35:10.202Z,1292
2017-05-27T07:36:10.255Z,1312
2017-05-27T07:37:10.612Z,1324
2017-05-27T07:38:10.369Z,1336
2017-05-27T07:39:10.722Z,1344
2017-05-27T07:40:10.476Z,1360
2017-05-27T07:41:10.228Z,1388
2017-05-27T07:42:10.892Z,1416
2017-05-27T07:43:10.947Z,1448
2017-05-27T07:44:10.693Z,1472
2017-05-27T07:45:11.049Z,1500
2017-05-27T07:46:11.110Z,1520
2017-05-27T07:47:11.165Z,1540
2017-05-27T07:48:11.219Z,1556
2017-05-27T07:49:11.272Z,1572
2017-05-27T07:50:11.029Z,1588
2017-05-27T07:51:11.083Z,1604
2017-05-27T07:52:11.145Z,1628
2017-05-27T07:53:11.195Z,1640
2017-05-27T07:54:11.246Z,1660
2017-05-27T07:55:11.303Z,1680
2017-05-27T07:56:11.357Z,1696
2017-05-27T07:57:11.715Z,1716
2017-05-27T07:58:11.467Z,1728
2017-05-27T07:59:11.826Z,1744
2017-05-27T08:00:11.580Z,1764
2017-05-27T08:01:11.934Z,1776
2017-05-27T08:02:11.986Z,1796
2017-05-27T08:03:12.046Z,1808
2017-05-27T08:04:12.103Z,1820
2017-05-27T08:05:12.155Z,1840
2017-05-27T08:06:12.211Z,1852
2017-05-27T08:07:12.267Z,1864
2017-05-27T08:08:12.320Z,1876
2017-05-27T08:09:12.378Z,1896
2017-05-27T08:10:12.132Z,1904
2017-05-27T08:11:12.186Z,1920
2017-05-27T08:12:12.546Z,1928
2017-05-27T08:13:12.596Z,1944
2017-05-27T08:14:12.352Z,1956
2017-05-27T08:15:12.409Z,1968
2017-05-27T08:16:12.764Z,1980
2017-05-27T08:17:12.819Z,1988
2017-05-27T08:18:12.327Z,2000
2017-05-27T08:19:12.637Z,2012
2017-05-27T08:20:12.682Z,2020
2017-05-27T08:21:12.737Z,2036
2017-05-27T08:22:13.098Z,2044
2017-05-27T08:23:13.151Z,2052
2017-05-27T08:24:13.201Z,2060
2017-05-27T08:25:13.259Z,2072
2017-05-27T08:26:13.315Z,2084
2017-05-27T08:27:13.373Z,2088
2017-05-27T08:28:13.426Z,2096
2017-05-27T08:29:13.485Z,2104
2017-05-27T08:30:13.234Z,2112
2017-05-27T08:31:13.592Z,2124
2017-05-27T08:32:13.347Z,2132
2017-05-27T08:33:13.405Z,2136
2017-05-27T08:34:13.462Z,2144
2017-05-27T08:35:13.517Z,2152
2017-05-27T08:36:13.570Z,2160
2017-05-27T08:37:13.929Z,2168
2017-05-27T08:38:13.985Z,2176
2017-05-27T08:39:14.039Z,2184
2017-05-27T08:40:14.097Z,2188
2017-05-27T08:41:14.154Z,2196
2017-05-27T08:42:13.906Z,2204
2017-05-27T08:43:14.262Z,2212
2017-05-27T08:44:14.322Z,2220
2017-05-27T08:45:14.073Z,2224
2017-05-27T08:46:14.130Z,2236
2017-05-27T08:47:14.491Z,2240
2017-05-27T08:48:14.541Z,2244
2017-05-27T08:49:14.612Z,2248
2017-05-27T08:50:14.651Z,2260
2017-05-27T08:51:14.710Z,2268
2017-05-27T08:52:14.763Z,2268
2017-05-27T08:53:14.822Z,2284
2017-05-27T08:54:14.878Z,2288
2017-05-27T08:55:14.936Z,2292
2017-05-27T08:56:14.989Z,2300
2017-05-27T08:57:15.048Z,2304
2017-05-27T08:58:15.102Z,2312
2017-05-27T08:59:15.161Z,2320
2017-05-27T09:00:15.214Z,2328
2017-05-27T09:01:15.268Z,2336
2017-05-27T09:02:15.325Z,2336
2017-05-27T09:03:15.386Z,2344
2017-05-27T09:04:15.438Z,2352
2017-05-27T09:05:15.489Z,2360
2017-05-27T09:06:15.546Z,2364
2017-05-27T09:07:15.604Z,2372
2017-05-27T09:08:15.664Z,2376
2017-05-27T09:09:15.775Z,2388
2017-05-27T09:10:15.468Z,2396
2017-05-27T09:11:15.830Z,2404
2017-05-27T09:12:15.881Z,2408
2017-05-27T09:13:15.938Z,2412
2017-05-27T09:14:15.990Z,2424
2017-05-27T09:15:15.747Z,2432
2017-05-27T09:16:15.801Z,2436
2017-05-27T09:17:16.166Z,2440
2017-05-27T09:18:15.915Z,2448
2017-05-27T09:19:16.274Z,2456
2017-05-27T09:20:16.326Z,2460
2017-05-27T09:21:16.423Z,2468
2017-05-27T09:22:16.437Z,2472
2017-05-27T09:23:16.498Z,2480
2017-05-27T09:24:16.551Z,2484
2017-05-27T09:25:16.611Z,2492
2017-05-27T09:26:16.664Z,2496
2017-05-27T09:27:16.719Z,2504
2017-05-27T09:28:16.784Z,2512
2017-05-27T09:29:16.832Z,2516
2017-05-27T09:30:16.885Z,2524
2017-05-27T09:31:16.945Z,2532
2017-05-27T09:32:16.998Z,2536
2017-05-27T09:33:17.061Z,2544
2017-05-27T09:34:17.115Z,2548
2017-05-27T09:35:17.165Z,2556
2017-05-27T09:36:17.221Z,2564
2017-05-27T09:37:17.281Z,2568
2017-05-27T09:38:17.035Z,2572
2017-05-27T09:39:17.393Z,2580
2017-05-27T09:40:17.446Z,2584
2017-05-27T09:41:17.504Z,2596
2017-05-27T09:42:17.564Z,2600
2017-05-27T09:43:17.614Z,2604
2017-05-27T09:44:17.679Z,2612
2017-05-27T09:45:17.731Z,2620
2017-05-27T09:46:17.789Z,2628
2017-05-27T09:47:17.542Z,2636
2017-05-27T09:48:17.596Z,2640
2017-05-27T09:49:17.658Z,2648
2017-05-27T09:50:18.010Z,2656
2017-05-27T09:51:17.766Z,2660
2017-05-27T09:52:18.124Z,2668
2017-05-27T09:53:17.879Z,2680
2017-05-27T09:54:17.932Z,2688
2017-05-27T09:55:18.290Z,2700
2017-05-27T09:56:18.052Z,2704
2017-05-27T09:57:18.119Z,2716
2017-05-27T09:58:17.860Z,2720
2017-05-27T09:59:17.917Z,2732
2017-05-27T10:00:18.273Z,2744
2017-05-27T10:01:18.033Z,2752
2017-05-27T10:02:18.414Z,2756
2017-05-27T10:03:18.472Z,2764
2017-05-27T10:04:18.206Z,2776
2017-05-27T10:05:18.268Z,2788
2017-05-27T10:06:18.623Z,2800
2017-05-27T10:07:18.372Z,2812
2017-05-27T10:08:18.731Z,2816
2017-05-27T10:09:19.092Z,2828
2017-05-27T10:10:19.149Z,2840
2017-05-27T10:11:19.205Z,2852
2017-05-27T10:12:19.264Z,2868
2017-05-27T10:13:19.323Z,2876
2017-05-27T10:14:19.072Z,2900
2017-05-27T10:15:19.436Z,2908
2017-05-27T10:16:19.190Z,2928
2017-05-27T10:17:19.248Z,2936
2017-05-27T10:18:19.608Z,2952
2017-05-27T10:19:19.670Z,2972
2017-05-27T10:20:19.717Z,2984
2017-05-27T10:21:19.776Z,2996
2017-05-27T10:22:19.531Z,3020
2017-05-27T10:23:19.892Z,3036
2017-05-27T10:24:19.652Z,3056
2017-05-27T10:25:19.706Z,3068
2017-05-27T10:26:19.459Z,3088
2017-05-27T10:27:20.120Z,3112
2017-05-27T10:28:20.175Z,3128
2017-05-27T10:29:20.231Z,3152
2017-05-27T10:30:20.290Z,3164
2017-05-27T10:31:20.048Z,3176
2017-05-27T10:32:20.117Z,3184
2017-05-27T10:33:20.164Z,3200
2017-05-27T10:34:20.524Z,3212
2017-05-27T10:35:20.281Z,3212
2017-05-27T10:36:20.639Z,3228
2017-05-27T10:37:20.694Z,3212
2017-05-27T10:38:20.761Z,3216
2017-05-27T10:39:20.512Z,3212
2017-05-27T10:40:20.870Z,3200
2017-05-27T10:41:20.926Z,3164
2017-05-27T10:42:20.981Z,3128
2017-05-27T10:43:20.742Z,3056
2017-05-27T10:44:20.797Z,2992
2017-05-27T10:45:20.858Z,2896
2017-05-27T10:46:21.212Z,2804
2017-05-27T10:47:21.272Z,2684
2017-05-27T10:48:21.332Z,2572
2017-05-27T10:49:21.386Z,2476
2017-05-27T10:50:21.446Z,2380
2017-05-27T10:51:21.503Z,2300
2017-05-27T10:52:21.557Z,2272
2017-05-27T10:53:21.618Z,2268
2017-05-27T10:54:21.677Z,2264
2017-05-27T10:55:21.736Z,2260
2017-05-27T10:56:21.484Z,2260
2017-05-27T10:57:21.852Z,2260
2017-05-27T10:58:21.915Z,2252
2017-05-27T10:59:21.961Z,2248
2017-05-27T11:00:22.017Z,2240
2017-05-27T11:01:21.775Z,2244
2017-05-27T11:02:22.147Z,2228
2017-05-27T11:03:21.894Z,2224
2017-05-27T11:04:22.252Z,2220
2017-05-27T11:05:22.308Z,2216
2017-05-27T11:06:22.365Z,2208
2017-05-27T11:07:22.419Z,2208
2017-05-27T11:08:22.178Z,2204
2017-05-27T11:09:22.540Z,2196
2017-05-27T11:10:22.599Z,2188
2017-05-27T11:11:22.653Z,2184
2017-05-27T11:12:22.410Z,2184
2017-05-27T11:13:22.467Z,2184
2017-05-27T11:14:22.522Z,2180
2017-05-27T11:15:22.641Z,2176
2017-05-27T11:16:22.944Z,2184
2017-05-27T11:17:23.015Z,2172
2017-05-27T11:18:23.057Z,2164
2017-05-27T11:19:22.816Z,2160
2017-05-27T11:20:23.174Z,2156
2017-05-27T11:21:23.244Z,2152
2017-05-27T11:22:23.293Z,2152
2017-05-27T11:23:23.347Z,2152
2017-05-27T11:24:23.410Z,2152
2017-05-27T11:25:23.162Z,2144
2017-05-27T11:26:23.523Z,2136
2017-05-27T11:27:23.638Z,2124
2017-05-27T11:28:23.340Z,2116
2017-05-27T11:29:23.694Z,2108
2017-05-27T11:30:23.753Z,2100
2017-05-27T11:31:23.810Z,2096
2017-05-27T11:32:23.866Z,2076
2017-05-27T11:33:23.925Z,2072
2017-05-27T11:34:23.981Z,2064
2017-05-27T11:35:24.042Z,2056
2017-05-27T11:36:24.104Z,2044
2017-05-27T11:37:24.156Z,2044
2017-05-27T11:38:24.211Z,2032
2017-05-27T11:39:24.270Z,2020
2017-05-27T11:40:24.329Z,2008
2017-05-27T11:41:24.390Z,1992
2017-05-27T11:42:24.453Z,1976
2017-05-27T11:43:24.503Z,1964
2017-05-27T11:44:24.265Z,1948
2017-05-27T11:45:24.624Z,1936
2017-05-27T11:46:24.376Z,1936
2017-05-27T11:47:24.737Z,1912
2017-05-27T11:48:24.792Z,1900
2017-05-27T11:49:24.553Z,1892
2017-05-27T11:50:24.612Z,1880
2017-05-27T11:51:24.661Z,1868
2017-05-27T11:52:25.022Z,1860
2017-05-27T11:53:25.087Z,1848
2017-05-27T11:54:25.143Z,1840
2017-05-27T11:55:25.197Z,1824
2017-05-27T11:56:25.256Z,1812
2017-05-27T11:57:25.317Z,1800
2017-05-27T11:58:25.375Z,1792
2017-05-27T11:59:25.442Z,1780
2017-05-27T12:00:25.500Z,1776
2017-05-27T12:01:25.559Z,1768
2017-05-27T12:02:25.606Z,1756
2017-05-27T12:03:25.667Z,1744
2017-05-27T12:04:25.728Z,1736
2017-05-27T12:05:25.779Z,1724
2017-05-27T12:06:25.837Z,1716
2017-05-27T12:07:25.895Z,1704
2017-05-27T12:08:25.954Z,1700
2017-05-27T12:09:26.010Z,1688
2017-05-27T12:10:26.073Z,1680
2017-05-27T12:11:26.128Z,1668
2017-05-27T12:12:26.187Z,1660
2017-05-27T12:13:26.242Z,1652
2017-05-27T12:14:25.998Z,1644
2017-05-27T12:15:26.364Z,1636
2017-05-27T12:16:26.424Z,1632
2017-05-27T12:17:26.176Z,1620
2017-05-27T12:18:26.230Z,1612
2017-05-27T12:19:26.294Z,1600
2017-05-27T12:20:26.652Z,1596
2017-05-27T12:21:26.709Z,1588
2017-05-27T12:22:26.769Z,1580
2017-05-27T12:23:26.826Z,1568
2017-05-27T12:24:26.884Z,1560
2017-05-27T12:25:26.941Z,1552
2017-05-27T12:26:27.005Z,1544
2017-05-27T12:27:27.059Z,1536
2017-05-27T12:28:26.814Z,1524
2017-05-27T12:29:26.870Z,1516
2017-05-27T12:30:26.932Z,1508
2017-05-27T12:31:26.987Z,1504
2017-05-27T12:32:27.052Z,1488
2017-05-27T12:33:27.101Z,1484
2017-05-27T12:34:27.465Z,1476
2017-05-27T12:35:27.522Z,1472
2017-05-27T12:36:27.578Z,1468
2017-05-27T12:37:27.638Z,1460
2017-05-27T12:38:27.696Z,1456
2017-05-27T12:39:27.750Z,1452
2017-05-27T12:40:27.821Z,1444
2017-05-27T12:41:27.881Z,1436
2017-05-27T12:42:27.928Z,1432
2017-05-27T12:43:27.987Z,1424
2017-05-27T12:44:28.103Z,1420
2017-05-27T12:45:28.101Z,1420
2017-05-27T12:46:28.161Z,1416
2017-05-27T12:47:28.218Z,1404
2017-05-27T12:48:28.274Z,1400
2017-05-27T12:49:28.395Z,1396
2017-05-27T12:50:28.393Z,1392
2017-05-27T12:51:28.451Z,1392
2017-05-27T12:52:28.209Z,1396
2017-05-27T12:53:28.571Z,1400
2017-05-27T12:54:28.327Z,1404
2017-05-27T12:55:28.683Z,1392
2017-05-27T12:56:28.139Z,1384
2017-05-27T12:57:28.193Z,1368
2017-05-27T12:58:28.560Z,1360
2017-05-27T12:59:28.306Z,1356
2017-05-27T13:00:28.669Z,1360
2017-05-27T13:01:28.426Z,1356
2017-05-27T13:02:29.090Z,1348
2017-05-27T13:03:29.149Z,1344
2017-05-27T13:04:29.203Z,1340
2017-05-27T13:05:29.261Z,1336
2017-05-27T13:06:29.320Z,1340
2017-05-27T13:07:29.381Z,1360
2017-05-27T13:08:29.435Z,1408
2017-05-27T13:09:29.497Z,1396
2017-05-27T13:10:29.555Z,1356
2017-05-27T13:11:29.612Z,1320
2017-05-27T13:12:29.674Z,1300
2017-05-27T13:13:29.725Z,1296
2017-05-27T13:14:29.785Z,1292
2017-05-27T13:15:29.846Z,1292
2017-05-27T13:16:29.902Z,1312
2017-05-27T13:17:29.963Z,1408
2017-05-27T13:18:30.023Z,1452
2017-05-27T13:19:30.075Z,1456
2017-05-27T13:20:30.134Z,1440
2017-05-27T13:21:30.195Z,1404
2017-05-27T13:22:30.252Z,1328
2017-05-27T13:23:30.307Z,1288
2017-05-27T13:24:30.062Z,1268
2017-05-27T13:25:30.428Z,1268
2017-05-27T13:26:30.479Z,1264
2017-05-27T13:27:30.541Z,1268
2017-05-27T13:28:30.297Z,1272
2017-05-27T13:29:30.354Z,1284
2017-05-27T13:30:30.408Z,1296
2017-05-27T13:31:30.468Z,1320
2017-05-27T13:32:30.826Z,1348
2017-05-27T13:33:30.584Z,1376
2017-05-27T13:34:30.943Z,1372
2017-05-27T13:35:31.001Z,1336
2017-05-27T13:36:31.056Z,1308
2017-05-27T13:37:31.118Z,1276
2017-05-27T13:38:31.233Z,1260
2017-05-27T13:39:30.936Z,1232
2017-05-27T13:40:31.295Z,1224
2017-05-27T13:41:31.346Z,1216
2017-05-27T13:42:31.408Z,1208
2017-05-27T13:43:31.536Z,1208
2017-05-27T13:44:31.523Z,1216
2017-05-27T13:45:31.579Z,1216
2017-05-27T13:46:31.334Z,1212
2017-05-27T13:47:31.396Z,1224